Time;durP1;ratioP1;P1;durP2;ratioP2;P2;SDS_P1;SDS_P2;PMS_P1;PMS_P2;Temp;Humidity;BMP_temperature;BMP_pressure;BME280_temperature;BME280_humidity;BME280_pressure;Samples;Min_cycle;Max_cycle;Signal;HPM_P1;HPM_P2
2022/06/17 00:00:17;;;;;;;15.85;12.60;;;12.90;99.90;;;;;;5053352;28;20146;-68
2022/06/17 00:02:44;;;;;;;19.80;13.05;;;12.90;99.90;;;;;;5073449;28;20057;-69
2022/06/17 00:05:10;;;;;;;17.60;13.60;;;12.80;99.90;;;;;;5071727;28;20049;-67
2022/06/17 00:07:38;;;;;;;19.85;13.88;;;12.80;99.90;;;;;;5052419;28;20052;-67
2022/06/17 00:10:19;;;;;;;18.98;13.45;;;12.80;99.90;;;;;;5072746;28;20068;-66
2022/06/17 00:12:46;;;;;;;17.55;13.73;;;12.80;99.90;;;;;;5073377;28;20060;-66
2022/06/17 00:15:12;;;;;;;17.95;13.35;;;12.80;99.90;;;;;;5067846;28;20146;-67
2022/06/17 00:17:39;;;;;;;16.73;12.88;;;12.80;99.90;;;;;;5072390;28;20048;-67
2022/06/17 00:20:08;;;;;;;19.23;14.85;;;12.80;99.90;;;;;;5070082;28;20043;-68
2022/06/17 00:22:34;;;;;;;17.27;13.27;;;12.80;99.90;;;;;;5071200;28;20043;-66
2022/06/17 00:25:01;;;;;;;17.67;13.75;;;12.70;99.90;;;;;;5054856;28;20036;-67
2022/06/17 00:27:27;;;;;;;17.75;13.18;;;12.70;99.90;;;;;;5052123;28;20366;-66
2022/06/17 00:29:53;;;;;;;17.83;13.50;;;12.70;99.90;;;;;;5037273;28;20040;-66
2022/06/17 00:32:20;;;;;;;18.75;13.35;;;12.70;99.90;;;;;;5038934;28;20113;-67
2022/06/17 00:34:46;;;;;;;16.92;12.73;;;12.70;99.90;;;;;;5071228;28;20370;-67
2022/06/17 00:37:15;;;;;;;15.15;12.23;;;12.70;99.90;;;;;;5054828;28;20036;-66
2022/06/17 00:39:41;;;;;;;16.80;12.65;;;12.70;99.90;;;;;;5064844;28;20522;-67
2022/06/17 00:42:11;;;;;;;14.90;11.77;;;12.70;99.90;;;;;;5070893;28;20048;-68
2022/06/17 00:44:53;;;;;;;15.13;12.07;;;12.60;99.90;;;;;;5053497;28;20058;-67
2022/06/17 00:47:47;;;;;;;19.02;13.00;;;12.60;99.90;;;;;;5058353;28;20055;-67
2022/06/17 00:50:23;;;;;;;19.73;14.05;;;12.60;99.90;;;;;;5065145;28;20036;-68
2022/06/17 00:52:50;;;;;;;17.98;14.35;;;12.50;99.90;;;;;;5064232;28;20048;-67
2022/06/17 00:55:40;;;;;;;18.35;14.18;;;12.50;99.90;;;;;;5069154;28;20043;-67
2022/06/17 00:58:17;;;;;;;19.30;15.43;;;12.50;99.90;;;;;;5053674;28;20137;-68
2022/06/17 01:00:44;;;;;;;21.52;15.77;;;12.50;99.90;;;;;;5072356;28;20133;-67
2022/06/17 01:03:15;;;;;;;22.73;16.30;;;12.50;99.90;;;;;;5049327;28;20055;-69
2022/06/17 01:05:53;;;;;;;23.42;17.05;;;12.50;99.90;;;;;;5070674;28;20076;-67
2022/06/17 01:11:18;;;;;;;24.88;17.25;;;12.50;99.90;;;;;;5060492;28;20051;-69
2022/06/17 01:13:48;;;;;;;22.67;16.77;;;12.50;99.90;;;;;;5072339;28;20484;-67
2022/06/17 01:16:15;;;;;;;20.60;16.15;;;12.50;99.90;;;;;;5071552;28;20052;-67
2022/06/17 01:18:43;;;;;;;24.40;16.23;;;12.50;99.90;;;;;;5067332;28;20110;-67
2022/06/17 01:21:22;;;;;;;20.58;15.65;;;12.60;99.90;;;;;;5055240;28;20116;-67
2022/06/17 01:23:48;;;;;;;20.27;16.02;;;12.60;99.90;;;;;;5068044;28;20071;-67
2022/06/17 01:26:16;;;;;;;21.80;15.55;;;12.50;99.90;;;;;;5070899;28;20436;-67
2022/06/17 01:28:42;;;;;;;18.98;15.00;;;12.60;99.90;;;;;;5070977;28;20074;-66
2022/06/17 01:31:08;;;;;;;21.50;15.85;;;12.50;99.90;;;;;;5051830;28;20044;-66
2022/06/17 01:33:36;;;;;;;19.65;15.32;;;12.50;99.90;;;;;;5071353;28;20477;-66
2022/06/17 01:36:10;;;;;;;24.50;17.52;;;12.50;99.90;;;;;;5060278;28;20451;-70
2022/06/17 01:38:39;;;;;;;21.63;16.98;;;12.50;99.90;;;;;;5046459;28;20048;-67
2022/06/17 01:41:07;;;;;;;21.73;16.10;;;12.50;99.90;;;;;;5061738;28;20047;-67
2022/06/17 01:43:51;;;;;;;22.27;15.95;;;12.50;99.90;;;;;;5077552;28;20044;-67
2022/06/17 01:46:25;;;;;;;24.13;16.73;;;12.50;99.90;;;;;;5068659;28;20086;-69
2022/06/17 01:49:17;;;;;;;19.50;14.57;;;12.50;99.90;;;;;;5057021;28;20044;-67
2022/06/17 01:51:45;;;;;;;;;;;12.50;99.90;;;;;;5035682;28;20048;-69
2022/06/17 01:54:18;;;;;;;28.73;17.10;;;12.40;99.90;;;;;;5071444;28;19921;-67
2022/06/17 01:56:46;;;;;;;23.05;16.13;;;12.40;99.90;;;;;;5070198;28;20083;-67
2022/06/17 01:59:30;;;;;;;23.30;17.25;;;12.40;99.90;;;;;;5048772;28;20043;-67
2022/06/17 02:02:00;;;;;;;25.70;17.85;;;12.40;99.90;;;;;;5071475;28;20052;-68
2022/06/17 02:04:32;;;;;;;20.52;16.45;;;12.40;99.90;;;;;;5070630;28;20044;-66
2022/06/17 02:07:09;;;;;;;24.55;16.98;;;12.40;99.90;;;;;;5070858;28;20047;-67
2022/06/17 02:09:36;;;;;;;23.05;16.67;;;12.50;99.90;;;;;;5068471;28;20044;-67
2022/06/17 02:12:02;;;;;;;23.23;16.58;;;12.50;99.90;;;;;;5070674;28;20048;-66
2022/06/17 02:14:29;;;;;;;23.65;16.42;;;12.50;99.90;;;;;;5062843;28;20076;-66
2022/06/17 02:16:56;;;;;;;24.55;16.52;;;12.50;99.90;;;;;;5065559;28;20087;-67
2022/06/17 02:19:25;;;;;;;20.88;15.85;;;12.60;99.90;;;;;;5035977;28;20377;-67
2022/06/17 02:22:01;;;;;;;21.40;15.90;;;12.60;99.90;;;;;;5068432;28;20048;-66
2022/06/17 02:24:28;;;;;;;23.13;15.77;;;12.60;99.90;;;;;;5070415;28;20051;-67
2022/06/17 02:26:56;;;;;;;22.60;15.07;;;12.60;99.90;;;;;;5037180;28;20363;-69
2022/06/17 02:29:24;;;;;;;22.10;15.02;;;12.70;99.90;;;;;;5067125;28;20044;-66
2022/06/17 02:31:50;;;;;;;24.67;13.90;;;12.70;99.90;;;;;;5065799;28;20492;-67
2022/06/17 02:34:18;;;;;;;19.42;13.75;;;12.80;99.90;;;;;;5068922;28;20040;-67
2022/06/17 02:36:54;;;;;;;17.70;13.18;;;12.80;99.90;;;;;;5069941;28;20548;-66
2022/06/17 02:39:21;;;;;;;20.98;13.43;;;12.90;99.90;;;;;;5060868;28;20088;-66
2022/06/17 02:41:48;;;;;;;21.33;15.00;;;12.90;99.90;;;;;;5037027;28;20400;-69
2022/06/17 02:44:29;;;;;;;23.73;15.45;;;12.90;99.90;;;;;;5070686;28;20044;-66
2022/06/17 02:46:56;;;;;;;22.27;14.93;;;12.80;99.90;;;;;;5050760;28;20440;-67
2022/06/17 02:49:25;;;;;;;20.65;14.05;;;12.80;99.90;;;;;;5068498;28;20040;-66
2022/06/17 02:51:53;;;;;;;22.20;14.38;;;12.80;99.90;;;;;;5061829;28;20071;-69
2022/06/17 02:54:39;;;;;;;20.70;14.52;;;12.70;99.90;;;;;;5060152;28;20380;-66
2022/06/17 02:57:08;;;;;;;18.77;14.55;;;12.80;99.90;;;;;;5046529;28;20065;-69
2022/06/17 02:59:53;;;;;;;21.58;14.68;;;12.80;99.90;;;;;;5049950;28;20495;-66
2022/06/17 03:02:25;;;;;;;20.38;14.20;;;12.90;99.90;;;;;;5056522;28;20742;-67
2022/06/17 03:04:53;;;;;;;21.10;15.27;;;12.80;99.90;;;;;;5056567;28;20500;-67
2022/06/17 03:07:23;;;;;;;20.00;15.10;;;12.80;99.90;;;;;;5054076;28;20047;-67
2022/06/17 03:09:49;;;;;;;20.75;15.48;;;12.80;99.90;;;;;;5053187;28;20037;-70
2022/06/17 03:12:21;;;;;;;22.10;15.93;;;12.80;99.90;;;;;;5056733;28;20033;-67
2022/06/17 03:14:51;;;;;;;20.08;15.30;;;12.80;99.90;;;;;;5061383;28;20060;-71
2022/06/17 03:17:21;;;;;;;20.55;14.70;;;12.80;99.90;;;;;;5036131;28;20080;-69
2022/06/17 03:19:48;;;;;;;21.85;15.55;;;12.90;99.90;;;;;;5053364;28;20459;-67
2022/06/17 03:22:14;;;;;;;21.33;15.43;;;12.90;99.90;;;;;;5037525;28;20041;-68
2022/06/17 03:24:51;;;;;;;19.42;15.07;;;12.80;99.90;;;;;;5052509;28;20386;-68
2022/06/17 03:27:42;;;;;;;21.08;15.77;;;12.70;99.90;;;;;;5053827;28;20170;-68
2022/06/17 03:30:12;;;;;;;22.55;16.17;;;12.80;99.90;;;;;;5054620;28;20381;-67
2022/06/17 03:32:43;;;;;;;19.42;15.43;;;12.80;99.90;;;;;;5056254;28;20083;-66
2022/06/17 03:35:23;;;;;;;;;;;12.90;99.90;;;;;;5054528;28;20056;-67
2022/06/17 03:37:55;;;;;;;20.55;14.02;;;12.90;99.90;;;;;;5052095;28;19979;-67
2022/06/17 03:40:28;;;;;;;17.30;15.05;;;13.00;99.90;;;;;;5039088;28;20112;-67
2022/06/17 03:43:05;;;;;;;19.27;14.35;;;13.10;99.90;;;;;;5053194;28;20421;-67
2022/06/17 03:45:58;;;;;;;18.65;14.10;;;13.20;99.90;;;;;;5053517;28;20508;-67
2022/06/17 03:48:45;;;;;;;18.45;14.30;;;13.30;99.90;;;;;;5024159;28;20116;-66
2022/06/17 03:51:17;;;;;;;21.38;14.35;;;13.40;99.90;;;;;;5051743;28;20457;-66
2022/06/17 03:53:44;;;;;;;18.70;13.95;;;13.50;99.90;;;;;;5053272;28;20037;-67
2022/06/17 03:56:19;;;;;;;21.20;14.65;;;13.70;99.90;;;;;;5040925;28;20041;-66
2022/06/17 03:58:46;;;;;;;19.48;14.32;;;13.80;99.90;;;;;;5076931;28;20047;-66
2022/06/17 04:01:15;;;;;;;19.48;14.10;;;13.80;99.90;;;;;;5070895;28;20055;-67
2022/06/17 04:03:56;;;;;;;17.05;13.82;;;13.90;99.90;;;;;;5060357;28;20039;-66
2022/06/17 04:06:27;;;;;;;19.33;14.38;;;14.00;99.90;;;;;;5051440;28;20048;-67
2022/06/17 04:08:55;;;;;;;16.00;13.60;;;14.00;99.90;;;;;;5069985;28;20066;-66
2022/06/17 04:11:49;;;;;;;21.90;14.30;;;14.00;99.90;;;;;;5086722;28;20043;-67
2022/06/17 04:14:23;;;;;;;17.08;13.43;;;14.00;99.90;;;;;;5072163;28;20469;-66
2022/06/17 04:16:56;;;;;;;20.00;13.93;;;14.10;99.90;;;;;;5079114;28;20039;-66
2022/06/17 04:19:28;;;;;;;21.05;13.20;;;14.10;99.90;;;;;;5076537;28;20088;-66
2022/06/17 04:22:01;;;;;;;16.77;12.65;;;14.20;99.90;;;;;;5074750;28;20498;-66
2022/06/17 04:24:29;;;;;;;16.77;12.77;;;14.30;99.90;;;;;;5076057;28;20055;-68
2022/06/17 04:27:02;;;;;;;16.63;12.57;;;14.30;99.90;;;;;;5080063;28;20111;-66
2022/06/17 04:29:42;;;;;;;17.75;12.75;;;14.50;99.90;;;;;;5049071;28;20040;-67
2022/06/17 04:32:34;;;;;;;21.15;12.55;;;14.60;99.90;;;;;;5074239;28;20173;-66
2022/06/17 04:35:00;;;;;;;19.10;12.27;;;14.80;99.90;;;;;;5073299;28;20685;-67
2022/06/17 04:37:26;;;;;;;17.05;11.85;;;14.90;99.90;;;;;;5055920;28;20082;-69
2022/06/17 04:39:58;;;;;;;18.55;11.43;;;15.00;99.90;;;;;;5057706;28;20438;-66
2022/06/17 04:42:27;;;;;;;;;;;15.10;99.90;;;;;;5066279;28;20045;-66
2022/06/17 04:44:52;;;;;;;14.90;12.15;;;15.20;99.90;;;;;;5073967;28;20007;-68
2022/06/17 04:47:20;;;;;;;16.25;12.20;;;15.30;99.90;;;;;;5058810;28;20556;-67
2022/06/17 04:50:03;;;;;;;17.40;11.40;;;15.40;99.90;;;;;;5059334;28;20090;-68
2022/06/17 04:52:58;;;;;;;13.63;10.68;;;15.40;99.90;;;;;;5091520;28;20231;-67
2022/06/17 04:55:34;;;;;;;15.63;11.00;;;15.40;99.90;;;;;;5071764;28;20059;-67
2022/06/17 04:58:00;;;;;;;16.30;11.52;;;15.40;99.90;;;;;;5054605;28;20048;-67
2022/06/17 05:00:28;;;;;;;14.38;11.45;;;15.50;99.90;;;;;;5054270;28;20040;-69
2022/06/17 05:02:55;;;;;;;16.25;11.20;;;15.60;99.90;;;;;;5070560;28;20048;-67
2022/06/17 05:05:28;;;;;;;12.60;10.27;;;15.70;99.90;;;;;;5071787;28;20063;-67
2022/06/17 05:07:55;;;;;;;13.73;11.10;;;15.70;99.90;;;;;;5072748;28;20044;-67
2022/06/17 05:10:37;;;;;;;16.73;11.07;;;15.80;99.90;;;;;;5048463;28;20036;-67
2022/06/17 05:13:39;;;;;;;13.40;10.80;;;15.90;99.90;;;;;;5069019;28;20048;-68
2022/06/17 05:16:08;;;;;;;;;;;15.90;99.90;;;;;;5038152;28;20535;-68
2022/06/17 05:18:34;;;;;;;12.98;11.00;;;15.80;99.90;;;;;;5072019;28;19951;-67
2022/06/17 05:21:00;;;;;;;12.27;10.15;;;15.80;99.90;;;;;;5056262;28;20126;-67
2022/06/17 05:23:26;;;;;;;18.15;11.10;;;15.90;99.90;;;;;;5071914;28;20476;-69
2022/06/17 05:25:53;;;;;;;16.65;11.55;;;15.90;99.90;;;;;;5070187;28;20040;-68
2022/06/17 05:28:20;;;;;;;13.35;10.90;;;15.90;99.90;;;;;;5054829;28;20045;-69
2022/06/17 05:30:53;;;;;;;14.35;11.38;;;15.80;99.90;;;;;;5069235;28;20404;-67
2022/06/17 05:33:20;;;;;;;13.90;11.27;;;15.90;99.90;;;;;;5071764;28;20123;-69
2022/06/17 05:35:47;;;;;;;14.68;11.55;;;15.80;99.90;;;;;;5052739;28;20048;-67
2022/06/17 05:38:13;;;;;;;12.75;11.18;;;15.90;99.90;;;;;;5051080;28;20119;-68
2022/06/17 05:40:39;;;;;;;17.92;11.70;;;15.90;99.90;;;;;;5052474;28;20127;-69
2022/06/17 05:43:06;;;;;;;15.23;10.93;;;15.90;99.90;;;;;;5070221;28;20055;-68
2022/06/17 05:45:32;;;;;;;19.38;11.68;;;16.00;99.90;;;;;;5070710;28;20040;-66
2022/06/17 05:47:58;;;;;;;17.98;12.02;;;15.90;99.90;;;;;;5067927;28;20146;-68
2022/06/17 05:50:25;;;;;;;20.05;11.40;;;16.00;99.90;;;;;;5070260;28;20074;-67
2022/06/17 05:52:59;;;;;;;16.95;11.70;;;16.10;99.90;;;;;;5038431;28;20048;-67
2022/06/17 05:55:28;;;;;;;14.88;11.75;;;16.10;99.90;;;;;;5059290;28;20068;-67
2022/06/17 05:57:54;;;;;;;18.08;10.85;;;16.20;99.90;;;;;;5068628;28;20132;-66
2022/06/17 06:00:21;;;;;;;15.60;11.98;;;16.30;99.90;;;;;;5068659;28;20057;-67
2022/06/17 06:02:47;;;;;;;16.20;11.68;;;16.30;99.90;;;;;;5047613;28;20533;-67
2022/06/17 06:05:17;;;;;;;15.60;11.02;;;16.40;99.90;;;;;;5063540;28;20534;-66
2022/06/17 06:07:43;;;;;;;15.98;11.20;;;16.50;99.90;;;;;;5070948;28;20068;-67
2022/06/17 06:10:10;;;;;;;13.27;10.93;;;16.60;99.90;;;;;;5068032;28;20067;-67
2022/06/17 06:12:56;;;;;;;16.48;11.43;;;16.80;99.90;;;;;;5070899;28;20455;-69
2022/06/17 06:15:24;;;;;;;16.90;10.88;;;16.90;99.90;;;;;;5063769;28;20048;-67
2022/06/17 06:17:49;;;;;;;13.95;11.35;;;17.00;99.90;;;;;;5070650;28;20040;-67
2022/06/17 06:20:17;;;;;;;14.65;10.90;;;17.00;99.90;;;;;;5054123;28;20040;-66
2022/06/17 06:22:43;;;;;;;15.30;10.63;;;17.10;99.90;;;;;;5071013;28;20048;-67
2022/06/17 06:25:14;;;;;;;14.10;11.45;;;17.20;99.90;;;;;;5068714;28;20036;-67
2022/06/17 06:27:40;;;;;;;14.65;10.93;;;17.20;99.90;;;;;;5054198;28;20098;-68
2022/06/17 06:30:14;;;;;;;16.67;11.50;;;17.30;99.90;;;;;;5049901;28;20489;-67
2022/06/17 06:32:45;;;;;;;16.30;11.52;;;17.40;99.90;;;;;;5043956;28;20045;-66
2022/06/17 06:35:16;;;;;;;16.65;11.50;;;17.40;99.90;;;;;;5068424;28;20040;-68
2022/06/17 06:37:42;;;;;;;18.17;11.85;;;17.40;99.90;;;;;;5068780;28;20080;-68
2022/06/17 06:40:09;;;;;;;15.80;11.15;;;17.40;99.90;;;;;;5060610;28;20542;-69
2022/06/17 06:42:35;;;;;;;17.92;11.25;;;17.30;99.90;;;;;;5065446;28;20044;-70
2022/06/17 06:45:01;;;;;;;17.20;11.48;;;17.40;99.90;;;;;;5048901;28;20401;-69
2022/06/17 06:47:27;;;;;;;17.67;12.05;;;17.40;99.90;;;;;;5067513;28;20050;-69
2022/06/17 06:49:53;;;;;;;20.08;12.30;;;17.50;99.90;;;;;;5037319;28;20077;-67
2022/06/17 06:52:19;;;;;;;16.48;11.25;;;17.50;99.90;;;;;;5069317;28;20090;-69
2022/06/17 06:54:46;;;;;;;17.98;12.27;;;17.50;99.90;;;;;;5017960;28;20398;-68
2022/06/17 06:57:14;;;;;;;19.98;12.15;;;17.60;99.90;;;;;;5061792;28;20101;-68
2022/06/17 06:59:40;;;;;;;17.00;11.88;;;17.70;99.90;;;;;;5066670;28;20048;-67
2022/06/17 07:02:06;;;;;;;16.55;11.45;;;17.80;99.90;;;;;;5054000;28;20086;-68
2022/06/17 07:04:32;;;;;;;16.63;12.48;;;17.90;99.90;;;;;;5051668;28;20435;-68
2022/06/17 07:06:58;;;;;;;15.23;12.00;;;18.00;99.90;;;;;;5069875;28;20128;-68
2022/06/17 07:09:25;;;;;;;16.65;11.93;;;18.10;99.90;;;;;;5040889;28;20115;-67
2022/06/17 07:11:51;;;;;;;16.73;11.65;;;18.30;99.90;;;;;;5069994;28;20481;-69
2022/06/17 07:14:17;;;;;;;15.75;12.07;;;18.30;99.90;;;;;;5052753;28;20048;-68
2022/06/17 07:16:43;;;;;;;17.83;12.40;;;18.40;99.90;;;;;;5067711;28;20094;-67
2022/06/17 07:19:16;;;;;;;16.80;12.13;;;18.50;99.90;;;;;;5069841;28;20512;-68
2022/06/17 07:21:42;;;;;;;18.23;12.10;;;18.60;99.90;;;;;;5062030;28;20412;-68
2022/06/17 07:24:13;;;;;;;16.70;11.65;;;18.60;99.90;;;;;;5064917;28;20044;-67
2022/06/17 07:26:39;;;;;;;16.38;11.93;;;18.70;99.90;;;;;;5063926;28;20044;-68
2022/06/17 07:29:05;;;;;;;13.95;11.13;;;18.90;99.90;;;;;;5067956;28;20036;-67
2022/06/17 07:31:31;;;;;;;16.25;11.63;;;19.00;99.90;;;;;;5053522;28;20054;-67
2022/06/17 07:33:58;;;;;;;15.38;11.00;;;19.00;99.90;;;;;;5053551;28;20041;-67
2022/06/17 07:41:59;;;;;;;15.23;10.98;;;19.30;99.90;;;;;;5066423;28;20400;-69
2022/06/17 07:44:26;;;;;;;17.35;10.05;;;19.30;99.90;;;;;;5069098;28;20483;-68
2022/06/17 07:46:52;;;;;;;17.50;11.27;;;19.40;99.90;;;;;;5052899;28;20036;-68
2022/06/17 07:49:19;;;;;;;14.65;10.48;;;19.50;99.90;;;;;;5044534;28;20401;-67
2022/06/17 07:51:46;;;;;;;16.23;10.65;;;19.60;99.90;;;;;;5067562;28;20044;-68
2022/06/17 07:54:12;;;;;;;15.65;9.90;;;19.70;99.90;;;;;;5068251;28;20115;-68
2022/06/17 07:56:39;;;;;;;14.77;9.73;;;19.80;99.90;;;;;;5041683;28;20506;-68
2022/06/17 07:59:05;;;;;;;12.15;9.77;;;20.00;99.90;;;;;;5049764;28;20055;-68
2022/06/17 08:01:31;;;;;;;16.75;10.25;;;20.00;99.90;;;;;;5047325;28;20087;-67
2022/06/17 08:03:57;;;;;;;12.27;9.75;;;20.10;99.90;;;;;;5051083;28;20044;-68
2022/06/17 08:06:24;;;;;;;15.13;9.43;;;20.20;99.90;;;;;;5051942;28;20033;-68
2022/06/17 08:08:50;;;;;;;13.88;9.55;;;20.20;99.90;;;;;;5052363;28;20477;-67
2022/06/17 08:11:16;;;;;;;13.90;10.20;;;20.50;99.90;;;;;;5035257;28;20088;-67
2022/06/17 08:13:42;;;;;;;14.60;9.88;;;20.70;99.90;;;;;;5032446;28;20045;-67
2022/06/17 08:16:12;;;;;;;14.55;9.30;;;21.20;99.90;;;;;;5033384;28;20041;-68
2022/06/17 08:18:39;;;;;;;11.97;8.93;;;21.50;99.90;;;;;;5052831;28;20049;-68
2022/06/17 08:21:05;;;;;;;13.93;9.73;;;21.60;99.90;;;;;;5034993;28;20044;-67
2022/06/17 08:23:31;;;;;;;13.77;9.95;;;21.70;99.90;;;;;;5051875;28;20032;-67
2022/06/17 08:25:58;;;;;;;14.63;8.73;;;21.70;99.90;;;;;;5015234;28;20033;-68
2022/06/17 08:28:25;;;;;;;13.35;9.45;;;21.70;99.90;;;;;;5049703;28;20036;-68
2022/06/17 08:30:53;;;;;;;13.25;9.43;;;21.80;99.90;;;;;;5029497;28;20056;-67
2022/06/17 08:33:27;;;;;;;11.45;8.85;;;21.90;99.90;;;;;;5047890;28;20049;-68
2022/06/17 08:35:55;;;;;;;11.07;9.02;;;22.00;99.90;;;;;;5047405;28;20049;-72
2022/06/17 08:38:34;;;;;;;11.00;8.18;;;22.10;99.90;;;;;;5047423;28;20098;-69
2022/06/17 08:41:08;;;;;;;10.98;8.65;;;22.30;99.90;;;;;;5047832;28;20044;-70
2022/06/17 08:43:57;;;;;;;11.05;9.52;;;22.60;99.90;;;;;;5047253;28;20477;-68
2022/06/17 08:46:44;;;;;;;11.77;8.23;;;22.70;99.90;;;;;;5047182;28;20048;-68
2022/06/17 08:49:10;;;;;;;10.40;9.23;;;22.90;99.90;;;;;;5047067;28;20045;-68
2022/06/17 08:51:54;;;;;;;13.05;9.48;;;23.10;99.90;;;;;;5029708;28;20083;-69
2022/06/17 08:54:35;;;;;;;11.05;9.73;;;23.00;99.90;;;;;;5046143;28;20397;-68
2022/06/17 08:57:24;;;;;;;11.02;9.45;;;23.20;99.90;;;;;;5040418;28;20106;-68
2022/06/17 08:59:50;;;;;;;14.50;8.68;;;23.40;99.90;;;;;;5065815;28;20040;-68
2022/06/17 09:02:34;;;;;;;9.82;8.55;;;23.50;99.90;;;;;;5067552;28;20052;-68
2022/06/17 09:05:10;;;;;;;10.55;8.90;;;23.40;99.90;;;;;;5048489;28;20048;-68
2022/06/17 09:07:41;;;;;;;13.77;8.88;;;23.50;99.90;;;;;;5083426;28;20048;-69
2022/06/17 09:10:59;;;;;;;10.23;9.13;;;23.50;99.90;;;;;;5066563;28;20123;-68
2022/06/17 09:14:02;;;;;;;10.10;8.10;;;23.50;99.90;;;;;;4990358;28;20091;-67
2022/06/17 09:16:55;;;;;;;11.70;8.98;;;23.00;99.90;;;;;;4989325;28;20050;-67
2022/06/17 09:19:29;;;;;;;9.75;8.70;;;22.70;99.90;;;;;;5054525;28;20193;-68
2022/06/17 09:22:02;;;;;;;12.80;9.90;;;22.50;99.90;;;;;;5072338;28;20067;-67
2022/06/17 09:24:46;;;;;;;11.50;9.13;;;22.30;99.90;;;;;;5055596;28;20059;-68
2022/06/17 09:27:30;;;;;;;16.27;9.20;;;22.30;99.90;;;;;;5071891;28;20046;-67
2022/06/17 09:29:56;;;;;;;16.00;9.30;;;22.30;99.90;;;;;;5049797;28;20037;-69
2022/06/17 09:32:30;;;;;;;9.55;8.55;;;22.40;99.90;;;;;;5067525;28;20045;-67
2022/06/17 09:35:14;;;;;;;12.50;8.65;;;22.60;99.90;;;;;;5066598;28;20556;-68
2022/06/17 09:37:55;;;;;;;10.63;8.10;;;22.70;99.90;;;;;;5065888;28;20120;-68
2022/06/17 09:40:30;;;;;;;11.07;7.30;;;22.90;99.90;;;;;;5066403;28;20362;-67
2022/06/17 09:43:11;;;;;;;10.82;7.32;;;22.90;99.90;;;;;;5049650;28;20040;-69
2022/06/17 09:46:04;;;;;;;9.60;5.80;;;22.90;99.90;;;;;;5064881;28;20047;-69
2022/06/17 09:48:51;;;;;;;7.68;6.20;;;23.00;99.90;;;;;;5046891;28;20732;-67
2022/06/17 09:51:52;;;;;;;9.63;6.85;;;23.00;99.90;;;;;;5065439;28;20036;-69
2022/06/17 09:54:27;;;;;;;7.63;6.75;;;23.00;99.90;;;;;;5063840;28;20151;-69
2022/06/17 09:57:16;;;;;;;9.35;6.38;;;23.00;99.90;;;;;;5058170;28;20053;-68
2022/06/17 09:59:50;;;;;;;9.50;6.80;;;23.20;99.90;;;;;;5051435;28;20045;-67
2022/06/17 10:02:21;;;;;;;9.55;7.07;;;23.60;99.90;;;;;;5051330;28;20421;-67
2022/06/17 10:04:49;;;;;;;;;;;23.90;99.90;;;;;;5033441;28;20057;-69
2022/06/17 10:07:28;;;;;;;10.57;6.25;;;24.00;99.90;;;;;;5041847;28;19921;-68
2022/06/17 10:10:09;;;;;;;10.40;6.70;;;23.90;99.90;;;;;;5024168;28;20060;-69
2022/06/17 10:13:00;;;;;;;7.53;6.10;;;24.10;99.90;;;;;;5045287;28;20045;-70
2022/06/17 10:19:31;;;;;;;9.52;5.55;;;23.80;99.90;;;;;;5006879;28;20196;-69
2022/06/17 10:22:17;;;;;;;9.82;5.80;;;23.70;99.90;;;;;;4991421;28;20042;-69
2022/06/17 10:25:11;;;;;;;8.73;6.35;;;23.40;99.90;;;;;;5043588;28;20402;-68
2022/06/17 10:27:55;;;;;;;8.77;5.90;;;23.30;99.30;;;;;;5042729;28;20170;-67
2022/06/17 10:30:39;;;;;;;7.13;6.10;;;23.10;98.80;;;;;;5040699;28;20037;-68
2022/06/17 10:33:12;;;;;;;7.30;5.97;;;23.00;99.90;;;;;;5041826;28;20041;-68
2022/06/17 10:35:40;;;;;;;10.98;5.63;;;22.90;99.90;;;;;;5042522;28;20090;-67
2022/06/17 10:38:10;;;;;;;8.45;6.53;;;22.90;99.90;;;;;;5042336;28;20044;-69
2022/06/17 10:40:40;;;;;;;9.73;6.32;;;22.90;99.90;;;;;;5041211;28;20128;-67
2022/06/17 10:43:11;;;;;;;10.15;6.78;;;23.00;99.90;;;;;;5042464;28;20040;-67
2022/06/17 10:45:37;;;;;;;8.55;6.93;;;23.10;99.90;;;;;;5035024;28;20045;-68
2022/06/17 10:48:22;;;;;;;11.68;7.75;;;23.00;99.90;;;;;;5044259;28;20029;-67
2022/06/17 10:50:56;;;;;;;10.30;7.63;;;23.10;99.90;;;;;;5028256;28;20076;-68
2022/06/17 10:53:47;;;;;;;11.20;8.20;;;23.00;99.90;;;;;;5045011;28;20049;-70
2022/06/17 10:56:22;;;;;;;;;;;23.00;99.90;;;;;;5048084;28;20136;-68
2022/06/17 10:59:01;;;;;;;9.73;7.35;;;22.90;99.90;;;;;;5068223;28;20011;-68
2022/06/17 11:01:46;;;;;;;9.80;7.70;;;23.00;99.90;;;;;;5083264;28;20043;-70
2022/06/17 11:04:17;;;;;;;11.38;7.85;;;23.10;99.90;;;;;;5067328;28;20047;-67
2022/06/17 11:06:50;;;;;;;11.30;6.55;;;23.20;99.90;;;;;;5067466;28;20056;-67
2022/06/17 11:09:25;;;;;;;9.80;6.20;;;23.40;99.90;;;;;;5067590;28;20079;-68
2022/06/17 11:12:02;;;;;;;7.13;5.97;;;23.40;99.90;;;;;;5045202;28;20043;-67
2022/06/17 11:14:44;;;;;;;9.50;5.82;;;23.60;99.90;;;;;;5085449;28;20069;-66
2022/06/17 11:17:30;;;;;;;10.98;5.43;;;23.60;99.90;;;;;;5069362;28;20032;-66
2022/06/17 11:20:00;;;;;;;7.05;5.75;;;23.80;99.90;;;;;;5068011;28;20066;-68
2022/06/17 11:22:34;;;;;;;8.00;6.20;;;24.00;99.90;;;;;;5069008;28;20048;-69
2022/06/17 11:25:22;;;;;;;9.55;6.07;;;24.10;99.90;;;;;;5051032;28;20040;-68
2022/06/17 11:28:17;;;;;;;8.48;6.03;;;24.20;97.70;;;;;;5065481;28;20043;-68
2022/06/17 11:30:58;;;;;;;8.57;6.40;;;24.40;97.80;;;;;;5051069;28;20093;-68
2022/06/17 11:33:24;;;;;;;9.50;6.30;;;24.50;96.80;;;;;;5066950;28;20101;-68
2022/06/17 11:35:59;;;;;;;10.93;5.90;;;24.70;99.40;;;;;;5068274;28;20055;-68
2022/06/17 11:38:26;;;;;;;9.68;6.35;;;25.10;99.80;;;;;;5069264;28;20044;-68
2022/06/17 11:40:55;;;;;;;9.13;5.88;;;25.30;97.20;;;;;;5071268;28;20147;-68
2022/06/17 11:43:28;;;;;;;7.43;6.15;;;25.40;96.00;;;;;;5054485;28;20064;-67
2022/06/17 11:45:55;;;;;;;10.68;6.20;;;25.60;92.00;;;;;;5071066;28;20040;-67
2022/06/17 11:48:22;;;;;;;10.60;7.30;;;25.40;91.40;;;;;;5055720;28;20058;-69
2022/06/17 11:51:04;;;;;;;7.35;6.63;;;25.50;90.50;;;;;;5072019;28;20476;-69
2022/06/17 11:53:47;;;;;;;9.95;6.75;;;25.40;90.50;;;;;;5070863;28;20087;-68
2022/06/17 11:56:28;;;;;;;7.43;6.45;;;25.70;90.10;;;;;;5071582;28;20090;-68
2022/06/17 11:59:16;;;;;;;9.88;6.22;;;25.80;85.50;;;;;;5071188;28;20102;-69
2022/06/17 12:02:07;;;;;;;9.88;6.93;;;26.30;88.80;;;;;;5071262;28;20042;-66
2022/06/17 12:05:03;;;;;;;12.27;6.65;;;26.60;80.50;;;;;;5072401;28;20476;-69
2022/06/17 12:07:47;;;;;;;9.52;6.53;;;26.70;81.90;;;;;;5070269;28;20070;-68
2022/06/17 12:10:38;;;;;;;8.27;7.05;;;26.30;76.50;;;;;;5069652;28;20115;-71
2022/06/17 12:13:33;;;;;;;10.65;7.70;;;26.00;78.80;;;;;;5069162;28;20112;-70
2022/06/17 12:16:26;;;;;;;8.98;7.30;;;25.70;81.80;;;;;;5069593;28;20091;-70
2022/06/17 12:18:56;;;;;;;10.23;7.47;;;25.90;82.60;;;;;;5069179;28;20507;-68
2022/06/17 12:21:54;;;;;;;10.57;7.70;;;26.00;80.50;;;;;;5069486;28;20040;-69
2022/06/17 12:24:24;;;;;;;11.05;7.65;;;25.80;79.30;;;;;;5068760;28;20481;-70
2022/06/17 12:27:02;;;;;;;9.93;6.75;;;25.90;78.40;;;;;;5071147;28;20111;-67
2022/06/17 12:29:49;;;;;;;10.75;7.07;;;26.10;80.60;;;;;;5068558;28;20093;-67
2022/06/17 12:32:24;;;;;;;9.57;6.68;;;26.10;78.40;;;;;;5072142;28;20055;-67
2022/06/17 12:35:15;;;;;;;10.27;7.25;;;26.40;82.70;;;;;;5057493;28;20043;-67
2022/06/17 12:37:41;;;;;;;13.88;6.72;;;26.50;77.80;;;;;;5071177;28;20052;-68
2022/06/17 12:40:49;;;;;;;10.20;6.70;;;26.80;79.90;;;;;;5070120;28;20056;-68
2022/06/17 12:43:27;;;;;;;7.95;6.35;;;27.00;75.80;;;;;;5053635;28;20372;-74
2022/06/17 12:46:11;;;;;;;10.18;6.00;;;26.90;74.40;;;;;;5075618;28;20083;-80
2022/06/17 12:53:13;;;;;;;8.70;6.30;;;27.40;77.50;;;;;;5063383;28;20063;-74
2022/06/17 12:55:08;;;;;;;9.63;5.72;;;27.50;74.40;;;;;;5072546;28;20080;-76
2022/06/17 12:58:06;;;;;;;8.85;5.93;;;27.90;72.20;;;;;;5069557;28;20048;-77
2022/06/17 13:00:49;;;;;;;8.40;5.43;;;28.20;72.30;;;;;;5037158;28;20116;-75
2022/06/17 13:03:33;;;;;;;7.72;5.20;;;29.00;70.00;;;;;;5053152;28;20040;-76
2022/06/17 13:06:17;;;;;;;10.00;5.15;;;29.30;65.90;;;;;;5085812;28;20108;-74
2022/06/17 13:08:47;;;;;;;7.38;5.18;;;29.50;65.10;;;;;;5064050;28;20047;-76
2022/06/17 13:11:35;;;;;;;5.80;5.20;;;29.50;65.60;;;;;;5069555;28;20118;-77
2022/06/17 13:14:21;;;;;;;8.15;4.85;;;29.10;64.40;;;;;;5064211;28;20044;-75
2022/06/17 13:16:55;;;;;;;8.10;5.13;;;28.90;60.70;;;;;;5053984;28;20044;-74
2022/06/17 13:19:44;;;;;;;6.00;5.00;;;28.20;62.20;;;;;;5069330;28;20098;-74
2022/06/17 13:22:25;;;;;;;7.07;4.60;;;28.00;62.60;;;;;;5069038;28;20450;-77
2022/06/17 13:25:05;;;;;;;7.30;4.60;;;27.70;62.20;;;;;;5069284;28;20119;-76